createdAt,value
2023-02-05T00:01:32.636Z,96385.06
2023-02-05T00:03:59.547Z,96401.13
2023-02-05T00:06:27.066Z,96401.78
2023-02-05T00:08:53.925Z,96386.63
2023-02-05T00:11:20.717Z,96377.16
2023-02-05T00:13:47.528Z,96387.91
2023-02-05T00:16:19.200Z,96359.03
2023-02-05T00:18:46.314Z,96389.00
2023-02-05T00:21:14.737Z,96397.50
2023-02-05T00:23:42.016Z,96372.34
2023-02-05T00:26:10.784Z,96377.09
2023-02-05T00:28:38.214Z,96390.44
2023-02-05T00:31:13.664Z,96397.38
2023-02-05T00:33:41.118Z,96388.75
2023-02-05T00:36:08.706Z,96386.38
2023-02-05T00:38:36.365Z,96390.66
2023-02-05T00:41:03.990Z,96372.78
2023-02-05T00:43:31.362Z,96367.53
2023-02-05T00:45:58.266Z,96366.91
2023-02-05T00:48:25.049Z,96388.19
2023-02-05T00:50:53.163Z,96378.88
2023-02-05T00:53:21.276Z,96389.63
2023-02-05T00:55:48.130Z,96357.25
2023-02-05T00:58:15.118Z,96379.44
2023-02-05T01:00:42.681Z,96382.47
2023-02-05T01:03:10.264Z,96398.16
2023-02-05T01:05:38.352Z,96377.97
2023-02-05T01:08:07.656Z,96396.53
2023-02-05T01:10:34.893Z,96381.44
2023-02-05T01:13:01.744Z,96388.06
2023-02-05T01:15:28.501Z,96389.88
2023-02-05T01:17:55.323Z,96390.78
2023-02-05T01:20:22.140Z,96387.19
2023-02-05T01:22:49.628Z,96379.53
2023-02-05T01:25:16.431Z,96397.94
2023-02-05T01:27:43.349Z,96386.94
2023-02-05T01:30:14.260Z,96380.72
2023-02-05T01:32:41.718Z,96344.41
2023-02-05T01:35:09.398Z,96359.47
2023-02-05T01:37:36.183Z,96366.47
2023-02-05T01:40:03.641Z,96370.56
2023-02-05T01:42:32.160Z,96351.03
2023-02-05T01:45:55.214Z,96358.66
2023-02-05T01:48:30.254Z,96354.25
2023-02-05T01:51:07.045Z,96343.75
2023-02-05T01:53:36.662Z,96343.00
2023-02-05T01:56:09.300Z,96353.19
2023-02-05T01:58:42.302Z,96346.25
2023-02-05T02:01:09.105Z,96338.84
2023-02-05T02:03:36.100Z,96332.38
2023-02-05T02:06:04.998Z,96335.59
2023-02-05T02:08:33.722Z,96343.75
2023-02-05T02:11:05.658Z,96344.66
2023-02-05T02:13:36.374Z,96336.38
2023-02-05T02:16:05.207Z,96333.00
2023-02-05T02:18:33.563Z,96309.59
2023-02-05T02:21:19.347Z,96327.06
2023-02-05T02:24:20.308Z,96322.94
2023-02-05T02:27:05.519Z,96315.28
2023-02-05T02:29:40.921Z,96320.66
2023-02-05T02:32:48.471Z,96309.03
2023-02-05T02:35:28.713Z,96316.03
2023-02-05T02:38:22.713Z,96314.66
2023-02-05T02:40:55.592Z,96314.66
2023-02-05T02:43:37.191Z,96297.91
2023-02-05T02:46:11.676Z,96299.72
2023-02-05T02:48:40.070Z,96300.41
2023-02-05T02:51:09.775Z,96297.25
2023-02-05T02:53:42.119Z,96294.72
2023-02-05T02:56:12.631Z,96288.06
2023-02-05T02:58:49.959Z,96282.63
2023-02-05T03:01:21.470Z,96309.28
2023-02-05T03:04:37.028Z,96289.81
2023-02-05T03:07:29.989Z,96293.81
2023-02-05T03:10:03.201Z,96295.75
2023-02-05T03:12:30.969Z,96290.16
2023-02-05T03:14:58.001Z,96296.84
2023-02-05T03:17:26.040Z,96296.72
2023-02-05T03:20:04.452Z,96294.31
2023-02-05T03:22:31.267Z,96266.47
2023-02-05T03:24:58.289Z,96283.44
2023-02-05T03:27:25.246Z,96279.00
2023-02-05T03:29:52.032Z,96262.19
2023-02-05T03:32:36.543Z,96280.22
2023-02-05T03:35:48.783Z,96273.31
2023-02-05T03:38:37.799Z,96268.06
2023-02-05T03:41:21.369Z,96264.94
2023-02-05T03:44:01.038Z,96280.84
2023-02-05T03:46:44.666Z,96291.72
2023-02-05T03:50:02.589Z,96272.84
2023-02-05T03:52:37.842Z,96277.75
2023-02-05T03:55:23.513Z,96249.09
2023-02-05T03:58:06.360Z,96267.81
2023-02-05T04:00:34.705Z,96270.34
2023-02-05T04:03:01.629Z,96278.28
2023-02-05T04:05:28.385Z,96260.38
2023-02-05T04:07:55.289Z,96234.81
2023-02-05T04:10:22.199Z,96257.59
2023-02-05T04:12:49.010Z,96255.00
2023-02-05T04:15:15.853Z,96247.38
2023-02-05T04:17:42.663Z,96250.59
2023-02-05T04:20:10.263Z,96254.09
2023-02-05T04:22:37.048Z,96253.72
2023-02-05T04:25:04.013Z,96258.88
2023-02-05T04:27:30.733Z,96259.84
2023-02-05T04:29:57.485Z,96249.63
2023-02-05T04:32:25.514Z,96252.94
2023-02-05T04:34:52.323Z,96246.81
2023-02-05T04:37:19.177Z,96220.22
2023-02-05T04:39:47.420Z,96220.41
2023-02-05T04:42:14.198Z,96218.03
2023-02-05T04:44:40.925Z,96221.38
2023-02-05T04:47:07.768Z,96227.84
2023-02-05T04:49:34.665Z,96239.28
2023-02-05T04:52:01.495Z,96240.78
2023-02-05T04:54:28.656Z,96233.91
2023-02-05T04:56:55.377Z,96246.34
2023-02-05T04:59:22.509Z,96226.69
2023-02-05T05:01:49.348Z,96237.03
2023-02-05T05:04:16.116Z,96252.47
2023-02-05T05:06:42.843Z,96206.16
2023-02-05T05:09:09.631Z,96244.81
2023-02-05T05:11:36.389Z,96252.41
2023-02-05T05:14:03.130Z,96240.00
2023-02-05T05:16:29.910Z,96263.69
2023-02-05T05:18:56.846Z,96257.06
2023-02-05T05:21:23.685Z,96253.56
2023-02-05T05:23:50.458Z,96247.84
2023-02-05T05:26:17.359Z,96261.19
2023-02-05T05:28:44.078Z,96250.28
2023-02-05T05:31:18.045Z,96251.22
2023-02-05T05:33:45.126Z,96258.63
2023-02-05T05:36:12.600Z,96258.81
2023-02-05T05:38:39.406Z,96252.00
2023-02-05T05:41:25.411Z,96234.03
2023-02-05T05:43:54.806Z,96254.41
2023-02-05T05:46:26.386Z,96238.28
2023-02-05T05:48:56.770Z,96259.41
2023-02-05T05:51:25.769Z,96241.81
2023-02-05T05:53:53.082Z,96230.16
2023-02-05T05:56:20.534Z,96274.03
2023-02-05T05:58:48.464Z,96263.78
2023-02-05T06:01:17.918Z,96268.06
2023-02-05T06:03:44.782Z,96241.91
2023-02-05T06:06:12.821Z,96276.41
2023-02-05T06:08:39.777Z,96257.72
2023-02-05T06:11:06.880Z,96246.59
2023-02-05T06:13:34.870Z,96243.22
2023-02-05T06:16:01.848Z,96244.19
2023-02-05T06:18:29.158Z,96257.38
2023-02-05T06:20:55.965Z,96259.03
2023-02-05T06:23:22.729Z,96262.50
2023-02-05T06:25:49.551Z,96249.72
2023-02-05T06:28:16.446Z,96258.81
2023-02-05T06:30:43.393Z,96240.16
2023-02-05T06:33:12.812Z,96266.53
2023-02-05T06:35:41.395Z,96263.69
2023-02-05T06:38:08.389Z,96259.66
2023-02-05T06:40:35.617Z,96267.03
2023-02-05T06:43:02.422Z,96257.69
2023-02-05T06:45:29.178Z,96246.22
2023-02-05T06:47:56.416Z,96256.19
2023-02-05T06:50:24.074Z,96256.69
2023-02-05T06:52:51.406Z,96255.78
2023-02-05T06:55:18.822Z,96260.56
2023-02-05T06:57:45.640Z,96251.53
2023-02-05T07:00:13.685Z,96261.63
2023-02-05T07:02:40.529Z,96249.81
2023-02-05T07:05:07.656Z,96241.56
2023-02-05T07:07:34.634Z,96251.59
2023-02-05T07:10:01.790Z,96257.00
2023-02-05T07:12:28.748Z,96264.47
2023-02-05T07:14:55.550Z,96272.06
2023-02-05T07:17:22.405Z,96267.88
2023-02-05T07:19:49.284Z,96260.06
2023-02-05T07:22:16.496Z,96271.50
2023-02-05T07:24:43.253Z,96242.72
2023-02-05T07:27:10.056Z,96257.88
2023-02-05T07:29:36.774Z,96250.88
2023-02-05T07:32:03.807Z,96254.50
2023-02-05T07:34:30.591Z,96249.34
2023-02-05T07:36:57.392Z,96271.88
2023-02-05T07:39:24.262Z,96249.06
2023-02-05T07:41:53.672Z,96274.94
2023-02-05T07:44:21.664Z,96250.47
2023-02-05T07:46:48.832Z,96248.38
2023-02-05T07:49:15.672Z,96247.28
2023-02-05T07:51:42.473Z,96258.50
2023-02-05T07:54:11.016Z,96263.41
2023-02-05T07:56:37.807Z,96263.25
2023-02-05T07:59:04.810Z,96264.41
2023-02-05T08:01:32.079Z,96257.69
2023-02-05T08:03:58.883Z,96261.53
2023-02-05T08:06:25.884Z,96248.03
2023-02-05T08:08:52.930Z,96242.72
2023-02-05T08:11:21.139Z,96241.72
2023-02-05T08:13:48.122Z,96231.94
2023-02-05T08:16:16.149Z,96244.41
2023-02-05T08:18:47.124Z,96237.69
2023-02-05T08:21:13.904Z,96233.28
2023-02-05T08:23:40.661Z,96230.63
2023-02-05T08:26:07.602Z,96246.28
2023-02-05T08:28:34.404Z,96252.66
2023-02-05T08:31:01.219Z,96241.47
2023-02-05T08:33:28.008Z,96242.72
2023-02-05T08:35:54.729Z,96242.41
2023-02-05T08:38:21.479Z,96211.75
2023-02-05T08:40:48.277Z,96244.44
2023-02-05T08:43:15.051Z,96219.84
2023-02-05T08:45:48.020Z,96228.56
2023-02-05T08:48:15.178Z,96238.34
2023-02-05T08:50:46.276Z,96233.78
2023-02-05T08:53:13.085Z,96226.00
2023-02-05T08:55:39.862Z,96223.41
2023-02-05T08:58:06.594Z,96203.88
2023-02-05T09:00:33.413Z,96220.06
2023-02-05T09:03:00.150Z,96229.00
2023-02-05T09:05:26.909Z,96194.44
2023-02-05T09:07:53.655Z,96218.44
2023-02-05T09:10:20.455Z,96206.72
2023-02-05T09:12:48.881Z,96214.66
2023-02-05T09:15:15.613Z,96196.56
2023-02-05T09:17:42.393Z,96175.34
2023-02-05T09:20:10.501Z,96198.47
2023-02-05T09:22:38.049Z,96205.16
2023-02-05T09:25:07.139Z,96182.88
2023-02-05T09:27:34.249Z,96183.19
2023-02-05T09:30:01.138Z,96169.06
2023-02-05T09:32:27.913Z,96158.03
2023-02-05T09:34:54.671Z,96163.25
2023-02-05T09:37:22.620Z,96170.38
2023-02-05T09:43:12.622Z,96154.63
2023-02-05T09:46:02.662Z,96156.47
2023-02-05T09:48:49.369Z,96160.59
2023-02-05T09:51:33.974Z,96156.41
2023-02-05T09:54:18.803Z,96159.41
2023-02-05T09:56:46.979Z,96163.22
2023-02-05T09:59:18.047Z,96148.38
2023-02-05T10:01:52.584Z,96159.63
2023-02-05T10:04:19.716Z,96151.47
2023-02-05T10:07:05.306Z,96159.59
2023-02-05T10:09:50.686Z,96160.28
2023-02-05T10:12:52.521Z,96157.56
2023-02-05T10:15:48.786Z,96158.44
2023-02-05T10:18:35.146Z,96158.56
2023-02-05T10:21:42.351Z,96155.53
2023-02-05T10:24:39.469Z,96150.19
2023-02-05T10:27:22.342Z,96147.09
2023-02-05T10:30:21.518Z,96146.44
2023-02-05T10:33:39.523Z,96126.97
2023-02-05T10:36:09.918Z,96139.44
2023-02-05T10:38:44.525Z,96146.75
2023-02-05T10:41:22.783Z,96149.88
2023-02-05T10:44:03.859Z,96130.53
2023-02-05T10:46:35.436Z,96125.69
2023-02-05T10:49:15.664Z,96142.47
2023-02-05T10:51:45.318Z,96134.84
2023-02-05T10:54:29.351Z,96133.75
2023-02-05T10:56:58.456Z,96120.16
2023-02-05T10:59:30.277Z,96121.19
2023-02-05T11:02:03.130Z,96064.72
2023-02-05T11:04:45.091Z,96111.25
2023-02-05T11:07:24.125Z,96079.34
2023-02-05T11:09:50.966Z,96111.44
2023-02-05T11:12:30.756Z,96107.88
2023-02-05T11:15:01.154Z,96091.72
2023-02-05T11:17:32.221Z,96096.81
2023-02-05T11:20:07.448Z,96086.69
2023-02-05T11:22:39.508Z,96093.97
2023-02-05T11:25:18.788Z,96087.91
2023-02-05T11:28:02.242Z,96090.97
2023-02-05T11:30:50.790Z,96096.34
2023-02-05T11:33:26.640Z,96099.53
2023-02-05T11:35:58.238Z,96095.97
2023-02-05T11:38:35.435Z,96089.56
2023-02-05T11:41:08.206Z,96088.53
2023-02-05T11:43:39.029Z,96088.53
2023-02-05T11:46:10.588Z,96072.09
2023-02-05T11:48:43.514Z,96095.59
2023-02-05T11:51:15.303Z,96084.22
2023-02-05T11:53:56.162Z,96085.19
2023-02-05T11:56:25.608Z,96075.97
2023-02-05T11:59:05.071Z,96089.88
2023-02-05T12:01:36.209Z,96082.72
2023-02-05T12:04:11.806Z,96073.41
2023-02-05T12:07:01.803Z,96074.78
2023-02-05T12:09:28.566Z,96090.63
2023-02-05T12:12:28.937Z,96087.88
2023-02-05T12:15:19.216Z,96084.34
2023-02-05T12:18:18.962Z,96070.13
2023-02-05T12:21:04.829Z,96062.97
2023-02-05T12:24:34.956Z,96044.94
2023-02-05T12:27:35.117Z,96050.41
2023-02-05T12:30:10.799Z,96042.34
2023-02-05T12:33:24.005Z,96032.53
2023-02-05T12:36:17.964Z,96040.50
2023-02-05T12:39:04.595Z,96017.91
2023-02-05T12:41:44.591Z,96013.09
2023-02-05T12:44:20.413Z,96025.09
2023-02-05T12:47:14.066Z,96019.50
2023-02-05T12:50:28.490Z,96009.84
2023-02-05T12:53:43.864Z,96011.97
2023-02-05T12:56:28.822Z,96006.69
2023-02-05T12:59:25.076Z,96000.38
2023-02-05T13:02:20.380Z,95999.56
2023-02-05T13:04:57.293Z,95993.69
2023-02-05T13:07:38.831Z,95988.50
2023-02-05T13:10:31.362Z,95987.22
2023-02-05T13:13:07.327Z,95971.25
2023-02-05T13:15:43.877Z,95964.19
2023-02-05T13:18:24.270Z,95973.38
2023-02-05T13:21:16.646Z,95962.78
2023-02-05T13:24:04.318Z,95950.25
2023-02-05T13:26:58.003Z,95964.47
2023-02-05T13:29:29.382Z,95968.75
2023-02-05T13:32:15.231Z,95960.84
2023-02-05T13:34:42.874Z,95933.72
2023-02-05T13:38:10.432Z,95963.44
2023-02-05T13:41:11.094Z,95963.44
2023-02-05T13:44:08.196Z,95959.44
2023-02-05T13:47:38.255Z,95955.06
2023-02-05T13:50:57.257Z,95947.19
2023-02-05T13:54:04.558Z,95950.06
2023-02-05T13:57:01.795Z,95948.22
2023-02-05T13:59:40.342Z,95948.38
2023-02-05T14:02:36.249Z,95950.31
2023-02-05T14:05:04.818Z,95916.97
2023-02-05T14:07:37.645Z,95940.22
2023-02-05T14:10:04.626Z,95924.75
2023-02-05T14:12:38.517Z,95928.53
2023-02-05T14:15:17.613Z,95942.88
2023-02-05T14:17:44.352Z,95940.22
2023-02-05T14:20:26.375Z,95931.50
2023-02-05T14:23:00.986Z,95928.69
2023-02-05T14:25:39.672Z,95936.41
2023-02-05T14:28:15.571Z,95934.78
2023-02-05T14:30:58.922Z,95914.47
2023-02-05T14:33:35.181Z,95907.69
2023-02-05T14:36:17.215Z,95926.72
2023-02-05T14:39:06.539Z,95921.63
2023-02-05T14:41:39.403Z,95920.88
2023-02-05T14:44:17.638Z,95914.34
2023-02-05T14:47:03.376Z,95911.47
2023-02-05T14:49:33.113Z,95914.19
2023-02-05T14:52:07.993Z,95919.53
2023-02-05T14:54:47.091Z,95910.19
2023-02-05T14:57:35.712Z,95925.56
2023-02-05T15:00:21.458Z,95916.19
2023-02-05T15:03:12.755Z,95922.41
2023-02-05T15:05:48.973Z,95923.25
2023-02-05T15:08:27.859Z,95926.88
2023-02-05T15:11:18.387Z,95927.16
2023-02-05T15:14:22.654Z,95930.66
2023-02-05T15:17:30.647Z,95924.72
2023-02-05T15:20:04.705Z,95931.69
2023-02-05T15:22:50.488Z,95912.44
2023-02-05T15:25:33.884Z,95918.53
2023-02-05T15:28:26.032Z,95912.44
2023-02-05T15:31:39.079Z,95922.63
2023-02-05T15:34:39.161Z,95914.09
2023-02-05T15:37:33.673Z,95917.78
2023-02-05T15:40:12.779Z,95919.22
2023-02-05T15:42:43.441Z,95906.66
2023-02-05T15:45:27.820Z,95887.34
2023-02-05T15:48:12.001Z,95914.94
2023-02-05T15:50:49.602Z,95902.41
2023-02-05T15:53:33.205Z,95911.59
2023-02-05T15:56:42.359Z,95909.16
2023-02-05T15:59:16.126Z,95911.09
2023-02-05T16:01:46.931Z,95910.94
2023-02-05T16:04:31.521Z,95909.25
2023-02-05T16:06:59.751Z,95910.94
2023-02-05T16:09:29.752Z,95902.75
2023-02-05T16:11:56.885Z,95910.34
2023-02-05T16:14:27.900Z,95925.03
2023-02-05T16:17:13.724Z,95919.25
2023-02-05T16:19:54.489Z,95909.97
2023-02-05T16:22:36.736Z,95921.00
2023-02-05T16:25:19.317Z,95922.94
2023-02-05T16:27:49.774Z,95932.41
2023-02-05T16:30:42.729Z,95930.88
2023-02-05T16:33:34.746Z,95939.34
2023-02-05T16:36:05.626Z,95936.19
2023-02-05T16:38:33.121Z,95933.44
2023-02-05T16:41:19.700Z,95939.97
2023-02-05T16:43:46.601Z,95947.91
2023-02-05T16:46:14.655Z,95954.78
2023-02-05T16:48:47.147Z,95961.63
2023-02-05T16:51:52.784Z,95957.13
2023-02-05T16:54:19.421Z,95967.16
2023-02-05T16:57:01.178Z,95963.25
2023-02-05T16:59:44.886Z,95959.31
2023-02-05T17:02:40.132Z,95959.72
2023-02-05T17:05:25.174Z,95971.94
2023-02-05T17:08:06.904Z,95973.97
2023-02-05T17:10:53.373Z,95971.59
2023-02-05T17:13:43.964Z,95973.31
2023-02-05T17:16:29.223Z,95971.94
2023-02-05T17:19:05.488Z,95978.50
2023-02-05T17:21:36.955Z,95981.16
2023-02-05T17:24:09.184Z,95985.53
2023-02-05T17:26:40.893Z,95950.84
2023-02-05T17:29:15.256Z,95977.41
2023-02-05T17:31:42.326Z,95973.13
2023-02-05T17:34:11.228Z,95977.13
2023-02-05T17:36:37.983Z,95973.09
2023-02-05T17:39:04.772Z,95985.53
2023-02-05T17:41:55.495Z,95983.00
2023-02-05T17:44:22.321Z,95981.31
2023-02-05T17:46:49.661Z,95981.31
2023-02-05T17:49:16.376Z,95988.19
2023-02-05T17:51:43.997Z,95974.81
2023-02-05T17:54:20.168Z,96000.84
2023-02-05T17:56:48.471Z,96001.09
2023-02-05T17:59:19.131Z,95982.50
2023-02-05T18:01:46.741Z,96006.28
2023-02-05T18:04:13.654Z,95983.16
2023-02-05T18:06:41.523Z,95997.34
2023-02-05T18:09:09.192Z,96003.50
2023-02-05T18:11:36.070Z,95991.69
2023-02-05T18:14:02.851Z,96002.81
2023-02-05T18:16:29.672Z,95991.47
2023-02-05T18:18:56.930Z,96006.03
2023-02-05T18:21:24.716Z,95997.06
2023-02-05T18:23:52.921Z,95982.81
2023-02-05T18:26:20.327Z,96004.09
2023-02-05T18:28:47.393Z,96015.66
2023-02-05T18:31:15.474Z,96013.38
2023-02-05T18:33:42.409Z,96029.53
2023-02-05T18:36:14.278Z,96028.78
2023-02-05T18:38:45.943Z,96035.59
2023-02-05T18:41:21.837Z,96020.81
2023-02-05T18:43:48.667Z,96007.78
2023-02-05T18:46:20.760Z,96027.13
2023-02-05T18:48:49.425Z,96024.53
2023-02-05T18:51:22.002Z,96032.81
2023-02-05T18:53:49.488Z,96031.06
2023-02-05T18:56:23.322Z,96039.44
2023-02-05T18:59:05.930Z,96032.59
2023-02-05T19:01:38.531Z,96049.34
2023-02-05T19:04:13.236Z,96053.34
2023-02-05T19:06:49.116Z,96059.03
2023-02-05T19:09:15.877Z,96053.16
2023-02-05T19:11:44.161Z,96042.09
2023-02-05T19:14:13.604Z,96060.03
2023-02-05T19:16:40.843Z,96060.03
2023-02-05T19:19:07.966Z,96052.47
2023-02-05T19:21:36.235Z,96066.75
2023-02-05T19:24:07.228Z,96061.13
2023-02-05T19:26:36.719Z,96074.00
2023-02-05T19:29:08.478Z,96070.56
2023-02-05T19:31:37.472Z,96071.66
2023-02-05T19:34:05.127Z,96057.19
2023-02-05T19:36:32.400Z,96062.22
2023-02-05T19:39:05.147Z,96086.59
2023-02-05T19:41:35.009Z,96072.84
2023-02-05T19:44:05.882Z,96067.94
2023-02-05T19:46:44.408Z,96061.53
2023-02-05T19:49:20.261Z,96063.19
2023-02-05T19:51:51.015Z,96069.25
2023-02-05T19:54:20.649Z,96060.41
2023-02-05T19:56:48.945Z,96058.84
2023-02-05T19:59:16.877Z,96048.38
2023-02-05T20:01:44.869Z,96037.78
2023-02-05T20:04:17.437Z,96065.47
2023-02-05T20:06:46.465Z,96067.00
2023-02-05T20:09:14.845Z,96048.31
2023-02-05T20:11:44.857Z,96060.38
2023-02-05T20:14:12.562Z,96075.09
2023-02-05T20:16:40.473Z,96068.94
2023-02-05T20:19:09.727Z,96072.44
2023-02-05T20:21:37.287Z,96076.94
2023-02-05T20:24:04.932Z,96086.19
2023-02-05T20:26:32.163Z,96078.31
2023-02-05T20:29:17.282Z,96083.59
2023-02-05T20:31:48.486Z,96087.19
2023-02-05T20:34:22.555Z,96083.97
2023-02-05T20:36:56.088Z,96096.41
2023-02-05T20:39:32.027Z,96099.16
2023-02-05T20:41:59.701Z,96091.53
2023-02-05T20:44:31.069Z,96117.50
2023-02-05T20:46:58.006Z,96089.97
2023-02-05T20:49:25.484Z,96119.13
2023-02-05T20:51:53.310Z,96117.47
2023-02-05T20:54:21.233Z,96107.25
2023-02-05T20:56:51.343Z,96133.59
2023-02-05T20:59:18.098Z,96124.53
2023-02-05T21:01:44.897Z,96124.19
2023-02-05T21:04:11.688Z,96124.97
2023-02-05T21:06:40.880Z,96143.44
2023-02-05T21:09:10.173Z,96150.13
2023-02-05T21:11:38.878Z,96159.50
2023-02-05T21:14:07.204Z,96147.69
2023-02-05T21:16:35.684Z,96159.16
2023-02-05T21:19:05.739Z,96158.75
2023-02-05T21:21:36.114Z,96164.78
2023-02-05T21:24:11.155Z,96160.41
2023-02-05T21:26:42.045Z,96166.03
2023-02-05T21:29:15.575Z,96156.56
2023-02-05T21:31:50.196Z,96166.94
2023-02-05T21:34:25.020Z,96155.19
2023-02-05T21:36:52.918Z,96171.88
2023-02-05T21:39:22.411Z,96162.34
2023-02-05T21:41:53.505Z,96188.13
2023-02-05T21:44:20.635Z,96158.94
2023-02-05T21:46:47.537Z,96185.78
2023-02-05T21:49:14.584Z,96178.06
2023-02-05T21:51:42.567Z,96172.75
2023-02-05T21:54:11.094Z,96175.03
2023-02-05T21:56:42.127Z,96186.03
2023-02-05T21:59:11.490Z,96199.34
2023-02-05T22:01:39.132Z,96188.38
2023-02-05T22:04:11.676Z,96187.94
2023-02-05T22:06:39.305Z,96166.13
2023-02-05T22:09:09.927Z,96204.03
2023-02-05T22:11:38.575Z,96191.44
2023-02-05T22:14:05.591Z,96182.97
2023-02-05T22:16:34.437Z,96210.75
2023-02-05T22:19:02.405Z,96196.75
2023-02-05T22:21:33.566Z,96163.59
2023-02-05T22:24:02.575Z,96213.50
2023-02-05T22:26:33.780Z,96211.75
2023-02-05T22:29:01.921Z,96212.13
2023-02-05T22:31:29.936Z,96225.09
2023-02-05T22:33:57.639Z,96216.88
2023-02-05T22:36:29.026Z,96231.44
2023-02-05T22:38:56.621Z,96248.91
2023-02-05T22:41:33.071Z,96236.38
2023-02-05T22:44:01.910Z,96233.72
2023-02-05T22:46:35.447Z,96244.88
2023-02-05T22:49:03.999Z,96241.97
2023-02-05T22:51:37.680Z,96251.19
2023-02-05T22:54:05.578Z,96266.63
2023-02-05T22:56:32.953Z,96236.25
2023-02-05T22:59:02.777Z,96258.22
2023-02-05T23:01:33.691Z,96270.28
2023-02-05T23:04:02.759Z,96273.47
2023-02-05T23:06:34.051Z,96275.81
2023-02-05T23:09:06.716Z,96275.47
2023-02-05T23:11:35.436Z,96293.72
2023-02-05T23:14:04.505Z,96295.31
2023-02-05T23:16:36.332Z,96274.41
2023-02-05T23:19:07.981Z,96304.63
2023-02-05T23:21:37.529Z,96299.00
2023-02-05T23:24:04.941Z,96304.41
2023-02-05T23:26:39.918Z,96318.22
2023-02-05T23:29:07.416Z,96319.16
2023-02-05T23:31:34.743Z,96310.13
2023-02-05T23:34:01.708Z,96305.09
2023-02-05T23:36:28.851Z,96319.53
2023-02-05T23:38:55.740Z,96292.88
2023-02-05T23:41:37.665Z,96309.16
2023-02-05T23:44:18.789Z,96325.09
2023-02-05T23:46:48.783Z,96315.91
2023-02-05T23:49:16.664Z,96308.88
2023-02-05T23:51:44.634Z,96332.63
2023-02-05T23:54:12.378Z,96304.31
2023-02-05T23:56:39.923Z,96291.66
2023-02-05T23:59:08.212Z,96300.59
